createdAt,value
2018-04-23T00:00:48.278Z,8.55
2018-04-23T00:03:15.821Z,7.85
2018-04-23T00:05:44.097Z,7.10
2018-04-23T00:08:12.402Z,8.63
2018-04-23T00:10:40.867Z,7.30
2018-04-23T00:13:08.413Z,7.50
2018-04-23T00:15:35.952Z,8.75
2018-04-23T00:18:04.234Z,7.93
2018-04-23T00:20:31.824Z,7.50
2018-04-23T00:22:59.373Z,7.22
2018-04-23T00:25:26.854Z,9.13
2018-04-23T00:27:55.211Z,7.40
2018-04-23T00:30:22.745Z,7.80
2018-04-23T00:32:50.250Z,8.32
2018-04-23T00:35:18.552Z,6.80
2018-04-23T00:37:46.057Z,8.68
2018-04-23T00:40:13.573Z,7.57
2018-04-23T00:42:41.077Z,8.02
2018-04-23T00:45:08.608Z,6.55
2018-04-23T00:47:36.130Z,7.15
2018-04-23T00:50:03.649Z,6.70
2018-04-23T00:52:31.162Z,7.20
2018-04-23T00:54:58.673Z,8.75
2018-04-23T00:57:26.208Z,7.72
2018-04-23T00:59:53.726Z,11.95
2018-04-23T01:02:21.242Z,8.38
2018-04-23T01:04:48.830Z,8.00
2018-04-23T01:07:16.349Z,8.85
2018-04-23T01:09:43.856Z,8.57
2018-04-23T01:12:11.409Z,9.23
2018-04-23T01:14:39.710Z,8.35
2018-04-23T01:17:07.265Z,10.02
2018-04-23T01:19:34.788Z,9.80
2018-04-23T01:22:02.314Z,9.95
2018-04-23T01:24:29.811Z,9.65
2018-04-23T01:26:57.328Z,11.73
2018-04-23T01:29:24.862Z,10.70
2018-04-23T01:31:52.439Z,10.40
2018-04-23T01:34:19.959Z,15.70
2018-04-23T01:36:48.236Z,11.18
2018-04-23T01:39:16.513Z,11.90
2018-04-23T01:41:44.799Z,12.20
2018-04-23T01:44:13.084Z,11.05
2018-04-23T01:46:41.392Z,11.43
2018-04-23T01:49:08.904Z,12.43
2018-04-23T01:51:36.457Z,12.02
2018-04-23T01:54:03.977Z,11.65
2018-04-23T01:56:31.503Z,11.02
2018-04-23T01:58:59.017Z,12.00
2018-04-23T02:01:26.531Z,10.95
2018-04-23T02:03:54.039Z,12.02
2018-04-23T02:06:21.556Z,12.27
2018-04-23T02:08:49.074Z,13.60
2018-04-23T02:11:17.358Z,12.88
2018-04-23T02:13:45.644Z,12.40
2018-04-23T02:16:13.934Z,12.70
2018-04-23T02:18:41.481Z,13.32
2018-04-23T02:21:08.999Z,12.50
2018-04-23T02:23:36.505Z,14.43
2018-04-23T02:26:04.821Z,13.25
2018-04-23T02:28:32.341Z,13.02
2018-04-23T02:30:59.868Z,12.52
2018-04-23T02:33:27.384Z,11.85
2018-04-23T02:35:54.910Z,13.00
2018-04-23T02:38:22.431Z,13.50
2018-04-23T02:40:49.937Z,13.50
2018-04-23T02:43:18.211Z,12.82
2018-04-23T02:45:46.514Z,14.65
2018-04-23T02:48:14.014Z,14.23
2018-04-23T02:50:41.537Z,13.85
2018-04-23T02:53:09.070Z,13.65
2018-04-23T02:55:37.349Z,14.07
2018-04-23T02:58:05.627Z,13.30
2018-04-23T03:00:33.163Z,12.68
2018-04-23T03:03:00.718Z,12.60
2018-04-23T03:05:28.232Z,13.98
2018-04-23T03:07:55.741Z,12.60
2018-04-23T03:10:23.273Z,14.18
2018-04-23T03:12:50.918Z,13.30
2018-04-23T03:15:18.424Z,13.85
2018-04-23T03:17:45.927Z,14.80
2018-04-23T03:20:13.449Z,12.18
2018-04-23T03:22:40.985Z,12.48
2018-04-23T03:25:08.504Z,13.85
2018-04-23T03:27:36.051Z,13.73
2018-04-23T03:30:03.561Z,13.45
2018-04-23T03:32:31.086Z,13.85
2018-04-23T03:34:58.617Z,11.75
2018-04-23T03:37:26.139Z,13.60
2018-04-23T03:39:53.685Z,14.13
2018-04-23T03:42:21.208Z,13.55
2018-04-23T03:44:48.724Z,12.75
2018-04-23T03:47:16.235Z,12.75
2018-04-23T03:49:43.759Z,13.85
2018-04-23T03:52:11.272Z,14.75
2018-04-23T03:54:38.817Z,13.23
2018-04-23T03:57:06.346Z,13.52
2018-04-23T03:59:33.936Z,13.88
2018-04-23T04:02:01.468Z,14.73
2018-04-23T04:04:28.978Z,13.85
2018-04-23T04:06:56.497Z,16.37
2018-04-23T04:09:24.081Z,13.10
2018-04-23T04:11:51.602Z,12.68
2018-04-23T04:14:31.872Z,14.63
2018-04-23T04:17:00.173Z,13.23
2018-04-23T04:19:27.682Z,8.80
2018-04-23T04:21:55.197Z,12.93
2018-04-23T04:24:22.707Z,12.35
2018-04-23T04:26:50.211Z,11.82
2018-04-23T04:29:18.565Z,14.43
2018-04-23T04:31:46.860Z,13.80
2018-04-23T04:34:14.372Z,12.37
2018-04-23T04:36:41.881Z,11.32
2018-04-23T04:39:09.541Z,10.70
2018-04-23T04:41:37.069Z,11.50
2018-04-23T04:44:05.381Z,11.95
2018-04-23T04:46:32.908Z,11.18
2018-04-23T04:49:00.424Z,10.52
2018-04-23T04:51:27.948Z,11.75
2018-04-23T04:53:55.470Z,11.88
2018-04-23T04:56:22.999Z,10.10
2018-04-23T04:58:50.509Z,10.88
2018-04-23T05:01:18.788Z,11.60
2018-04-23T05:03:47.057Z,10.90
2018-04-23T05:06:15.375Z,11.27
2018-04-23T05:08:42.883Z,10.05
2018-04-23T05:11:10.454Z,10.95
2018-04-23T05:13:38.736Z,10.65
2018-04-23T05:16:07.012Z,10.65
2018-04-23T05:18:35.296Z,11.12
2018-04-23T05:21:03.584Z,10.55
2018-04-23T05:23:31.127Z,12.35
2018-04-23T05:25:59.420Z,11.98
2018-04-23T05:28:26.928Z,9.80
2018-04-23T05:30:54.547Z,10.68
2018-04-23T05:33:22.049Z,10.18
2018-04-23T05:35:49.552Z,11.12
2018-04-23T05:38:17.828Z,11.35
2018-04-23T05:40:46.133Z,11.70
2018-04-23T05:43:13.668Z,10.80
2018-04-23T05:45:41.177Z,9.80
2018-04-23T05:48:08.739Z,11.82
2018-04-23T05:50:36.254Z,10.82
2018-04-23T05:53:03.766Z,9.82
2018-04-23T05:55:31.280Z,10.18
2018-04-23T05:57:58.789Z,9.07
2018-04-23T06:00:26.293Z,12.60
2018-04-23T06:02:53.811Z,10.25
2018-04-23T06:05:21.342Z,11.07
2018-04-23T06:07:48.885Z,10.93
2018-04-23T06:10:16.384Z,9.38
2018-04-23T06:12:46.363Z,9.95
2018-04-23T06:15:13.887Z,12.27
2018-04-23T06:17:41.422Z,10.23
2018-04-23T06:20:08.952Z,9.55
2018-04-23T06:22:36.475Z,11.90
2018-04-23T06:25:04.015Z,9.75
2018-04-23T06:27:32.315Z,12.48
2018-04-23T06:30:00.600Z,8.30
2018-04-23T06:32:28.103Z,9.25
2018-04-23T06:34:55.612Z,8.80
2018-04-23T06:37:23.158Z,11.68
2018-04-23T06:39:51.435Z,12.40
2018-04-23T06:42:19.721Z,9.27
2018-04-23T06:44:48.024Z,9.73
2018-04-23T06:47:15.534Z,7.93
2018-04-23T06:49:43.049Z,6.90
2018-04-23T06:52:10.606Z,12.93
2018-04-23T06:54:38.124Z,9.65
2018-04-23T06:57:06.455Z,7.05
2018-04-23T06:59:34.076Z,9.07
2018-04-23T07:02:01.666Z,8.25
2018-04-23T07:04:29.194Z,9.50
2018-04-23T07:06:56.717Z,7.85
2018-04-23T07:09:24.228Z,7.05
2018-04-23T07:11:51.737Z,8.05
2018-04-23T07:14:19.266Z,7.72
2018-04-23T07:16:46.792Z,10.23
2018-04-23T07:19:15.069Z,8.40
2018-04-23T07:21:43.353Z,5.95
2018-04-23T07:24:10.875Z,9.07
2018-04-23T07:26:38.408Z,7.57
2018-04-23T07:29:05.922Z,9.70
2018-04-23T07:31:34.215Z,7.78
2018-04-23T07:34:01.759Z,7.55
2018-04-23T07:36:29.338Z,7.37
2018-04-23T07:38:56.863Z,7.57
2018-04-23T07:41:24.379Z,9.45
2018-04-23T07:43:51.891Z,8.75
2018-04-23T07:46:20.203Z,8.23
2018-04-23T07:48:47.704Z,10.77
2018-04-23T07:51:15.229Z,10.82
2018-04-23T07:53:42.752Z,9.77
2018-04-23T07:56:11.092Z,9.00
2018-04-23T07:58:38.603Z,9.45
2018-04-23T08:01:06.147Z,14.07
2018-04-23T08:03:34.436Z,10.27
2018-04-23T08:06:02.709Z,12.23
2018-04-23T08:08:30.998Z,11.82
2018-04-23T08:10:58.524Z,9.82
2018-04-23T08:13:26.061Z,13.48
2018-04-23T08:15:53.579Z,10.48
2018-04-23T08:18:21.099Z,10.45
2018-04-23T08:20:48.621Z,10.90
2018-04-23T08:23:16.144Z,8.45
2018-04-23T08:25:43.680Z,9.27
2018-04-23T08:28:11.183Z,10.75
2018-04-23T08:30:38.688Z,12.13
2018-04-23T08:33:06.201Z,8.15
2018-04-23T08:35:33.745Z,5.20
2018-04-23T08:38:01.250Z,5.65
2018-04-23T08:40:28.767Z,7.12
2018-04-23T08:42:56.307Z,5.95
2018-04-23T08:45:23.828Z,7.70
2018-04-23T08:47:51.328Z,9.48
2018-04-23T08:50:19.649Z,6.12
2018-04-23T08:52:47.176Z,6.25
2018-04-23T08:55:15.473Z,5.78
2018-04-23T08:57:43.045Z,7.22
2018-04-23T09:00:10.596Z,9.75
2018-04-23T09:02:38.128Z,8.40
2018-04-23T09:05:06.398Z,5.65
2018-04-23T09:07:34.689Z,5.78
2018-04-23T09:10:02.979Z,6.95
2018-04-23T09:12:30.493Z,8.48
2018-04-23T09:14:58.006Z,3.15
2018-04-23T09:17:25.598Z,7.43
2018-04-23T09:19:53.186Z,4.72
2018-04-23T09:22:20.708Z,6.60
2018-04-23T09:24:48.224Z,12.15
2018-04-23T09:27:15.769Z,7.53
2018-04-23T09:29:44.051Z,9.65
2018-04-23T09:32:11.570Z,8.50
2018-04-23T09:34:39.073Z,6.45
2018-04-23T09:37:06.576Z,9.35
2018-04-23T09:39:34.081Z,8.85
2018-04-23T09:42:02.370Z,6.32
2018-04-23T09:44:30.685Z,9.90
2018-04-23T09:46:58.209Z,7.18
2018-04-23T09:49:26.474Z,9.88
2018-04-23T09:51:54.002Z,8.77
2018-04-23T09:54:21.516Z,10.23
2018-04-23T09:56:49.025Z,8.70
2018-04-23T09:59:16.561Z,14.35
2018-04-23T10:01:49.748Z,6.22
2018-04-23T10:04:21.133Z,13.07
2018-04-23T10:06:48.651Z,15.77
2018-04-23T10:09:16.154Z,9.60
2018-04-23T10:11:44.483Z,9.15
2018-04-23T10:14:12.002Z,10.75
2018-04-23T10:16:39.505Z,9.40
2018-04-23T10:19:07.033Z,11.68
2018-04-23T10:21:34.554Z,11.40
2018-04-23T10:24:02.086Z,11.05
2018-04-23T10:26:29.629Z,12.45
2018-04-23T10:28:57.157Z,13.07
2018-04-23T10:31:24.799Z,14.40
2018-04-23T10:33:52.342Z,17.00
2018-04-23T10:36:19.920Z,16.80
2018-04-23T10:38:51.026Z,18.60
2018-04-23T10:41:21.530Z,18.83
2018-04-23T10:43:49.280Z,19.05
2018-04-23T10:46:16.875Z,19.37
2018-04-23T10:48:44.446Z,19.50
2018-04-23T10:51:12.467Z,18.20
2018-04-23T10:53:40.771Z,15.40
2018-04-23T10:56:09.104Z,18.70
2018-04-23T10:58:36.642Z,18.70
2018-04-23T11:01:04.173Z,15.68
2018-04-23T11:03:32.469Z,13.88
2018-04-23T11:05:59.999Z,13.05
2018-04-23T11:08:28.293Z,14.00
2018-04-23T11:10:55.827Z,12.32
2018-04-23T11:13:24.113Z,11.10
2018-04-23T11:15:52.419Z,12.37
2018-04-23T11:18:19.923Z,11.88
2018-04-23T11:20:47.443Z,10.48
2018-04-23T11:23:14.981Z,10.32
2018-04-23T11:25:43.287Z,9.15
2018-04-23T11:28:10.800Z,9.15
2018-04-23T11:30:38.310Z,7.90
2018-04-23T11:33:05.823Z,8.00
2018-04-23T11:35:34.541Z,7.80
2018-04-23T11:38:02.045Z,7.60
2018-04-23T11:40:29.548Z,9.02
2018-04-23T11:42:57.072Z,8.65
2018-04-23T11:45:24.623Z,6.70
2018-04-23T11:47:52.269Z,8.98
2018-04-23T11:50:19.765Z,11.48
2018-04-23T11:52:47.572Z,8.07
2018-04-23T11:55:15.097Z,7.93
2018-04-23T11:57:42.650Z,8.30
2018-04-23T12:00:10.928Z,7.37
2018-04-23T12:02:39.213Z,8.25
2018-04-23T12:05:07.477Z,8.57
2018-04-23T12:07:35.773Z,8.43
2018-04-23T12:10:04.059Z,8.65
2018-04-23T12:12:32.436Z,8.45
2018-04-23T12:14:59.977Z,12.27
2018-04-23T12:17:28.285Z,11.35
2018-04-23T12:19:55.797Z,9.20
2018-04-23T12:22:23.304Z,10.70
2018-04-23T12:24:50.867Z,10.77
2018-04-23T12:27:18.402Z,11.85
2018-04-23T12:29:45.977Z,10.15
2018-04-23T12:32:13.529Z,9.90
2018-04-23T12:34:41.042Z,10.23
2018-04-23T12:37:08.551Z,11.48
2018-04-23T12:39:36.066Z,11.40
2018-04-23T12:42:03.570Z,9.95
2018-04-23T12:44:31.107Z,12.30
2018-04-23T12:46:59.438Z,14.60
2018-04-23T12:49:26.969Z,13.60
2018-04-23T12:51:54.482Z,10.95
2018-04-23T12:54:22.178Z,13.45
2018-04-23T12:56:50.562Z,11.27
2018-04-23T12:59:18.075Z,10.83
2018-04-23T13:01:45.621Z,10.63
2018-04-23T13:04:13.164Z,11.07
2018-04-23T13:06:40.689Z,11.05
2018-04-23T13:09:08.977Z,12.05
2018-04-23T13:11:37.261Z,14.00
2018-04-23T13:14:04.792Z,12.02
2018-04-23T13:16:32.341Z,11.60
2018-04-23T13:18:59.879Z,11.57
2018-04-23T13:21:27.395Z,11.90
2018-04-23T13:23:54.977Z,10.45
2018-04-23T13:26:22.501Z,11.68
2018-04-23T13:28:50.029Z,12.27
2018-04-23T13:31:17.555Z,11.32
2018-04-23T13:33:45.057Z,10.60
2018-04-23T13:36:12.586Z,12.13
2018-04-23T13:38:40.152Z,12.70
2018-04-23T13:41:07.760Z,10.15
2018-04-23T13:43:36.031Z,10.52
2018-04-23T13:46:03.633Z,12.27
2018-04-23T13:48:31.190Z,11.45
2018-04-23T13:50:58.725Z,10.43
2018-04-23T13:53:26.304Z,11.43
2018-04-23T13:55:53.979Z,11.35
2018-04-23T13:58:21.561Z,11.15
2018-04-23T14:00:49.125Z,11.03
2018-04-23T14:03:16.743Z,11.45
2018-04-23T14:05:45.034Z,11.85
2018-04-23T14:08:12.598Z,11.23
2018-04-23T14:10:40.125Z,13.02
2018-04-23T14:13:07.635Z,10.88
2018-04-23T14:15:35.188Z,11.63
2018-04-23T14:18:02.738Z,11.80
2018-04-23T14:20:30.403Z,11.50
2018-04-23T14:22:57.926Z,12.73
2018-04-23T14:25:26.247Z,11.25
2018-04-23T14:27:54.588Z,12.07
2018-04-23T14:30:23.677Z,12.13
2018-04-23T14:32:51.980Z,10.63
2018-04-23T14:35:19.510Z,12.02
2018-04-23T14:37:47.153Z,10.65
2018-04-23T14:40:14.672Z,10.88
2018-04-23T14:42:42.201Z,10.23
2018-04-23T14:45:10.482Z,8.60
2018-04-23T14:47:38.770Z,11.30
2018-04-23T14:50:06.301Z,9.53
2018-04-23T14:52:33.868Z,10.98
2018-04-23T14:55:02.187Z,13.98
2018-04-23T14:57:29.814Z,9.13
2018-04-23T14:59:58.107Z,7.87
2018-04-23T15:02:25.653Z,8.98
2018-04-23T15:04:53.161Z,6.35
2018-04-23T15:07:20.674Z,11.73
2018-04-23T15:09:48.957Z,8.10
2018-04-23T15:12:17.317Z,4.30
2018-04-23T15:14:44.829Z,7.95
2018-04-23T15:17:12.334Z,10.38
2018-04-23T15:19:40.667Z,6.47
2018-04-23T15:22:08.240Z,8.25
2018-04-23T15:24:35.759Z,6.50
2018-04-23T15:27:03.303Z,6.90
2018-04-23T15:29:30.837Z,6.63
2018-04-23T15:31:58.369Z,7.20
2018-04-23T15:34:25.925Z,5.95
2018-04-23T15:36:53.463Z,8.65
2018-04-23T15:39:20.985Z,7.37
2018-04-23T15:41:48.491Z,6.57
2018-04-23T15:44:16.124Z,5.50
2018-04-23T15:46:43.642Z,6.65
2018-04-23T15:49:11.249Z,6.90
2018-04-23T15:51:39.535Z,5.55
2018-04-23T15:54:07.046Z,5.80
2018-04-23T15:56:34.570Z,5.05
2018-04-23T15:59:02.133Z,5.12
2018-04-23T16:01:29.730Z,9.75
2018-04-23T16:03:57.309Z,5.65
2018-04-23T16:06:24.807Z,6.12
2018-04-23T16:08:52.317Z,5.80
2018-04-23T16:11:19.851Z,6.75
2018-04-23T16:13:48.135Z,5.23
2018-04-23T16:16:15.763Z,5.65
2018-04-23T16:18:43.303Z,3.70
2018-04-23T16:21:11.622Z,4.28
2018-04-23T16:23:39.725Z,4.25
2018-04-23T16:26:07.318Z,5.05
2018-04-23T16:28:34.908Z,3.90
2018-04-23T16:31:02.443Z,4.20
2018-04-23T16:33:29.959Z,5.87
2018-04-23T16:35:57.652Z,5.00
2018-04-23T16:38:25.226Z,4.10
2018-04-23T16:40:53.583Z,3.80
2018-04-23T16:43:21.091Z,3.83
2018-04-23T16:45:48.613Z,3.87
2018-04-23T16:48:16.948Z,4.40
2018-04-23T16:50:44.473Z,6.10
2018-04-23T16:53:11.995Z,4.43
2018-04-23T16:55:39.508Z,6.00
2018-04-23T16:58:07.036Z,5.00
2018-04-23T17:00:34.619Z,4.43
2018-04-23T17:03:02.147Z,4.18
2018-04-23T17:05:30.649Z,4.40
2018-04-23T17:07:58.214Z,5.65
2018-04-23T17:10:26.525Z,5.68
2018-04-23T17:12:54.170Z,4.47
2018-04-23T17:15:21.672Z,4.43
2018-04-23T17:17:49.198Z,4.10
2018-04-23T17:20:16.818Z,4.60
2018-04-23T17:22:44.329Z,5.18
2018-04-23T17:25:11.901Z,6.37
2018-04-23T17:27:42.172Z,5.70
2018-04-23T17:30:11.377Z,4.00
2018-04-23T17:32:39.705Z,3.60
2018-04-23T17:35:07.246Z,3.70
2018-04-23T17:37:37.893Z,4.97
2018-04-23T17:40:05.460Z,6.05
2018-04-23T17:42:33.051Z,4.80
2018-04-23T17:45:01.333Z,4.20
2018-04-23T17:47:29.636Z,4.97
2018-04-23T17:49:57.166Z,5.43
2018-04-23T17:52:24.673Z,7.60
2018-04-23T17:54:52.211Z,6.82
2018-04-23T17:57:19.765Z,4.55
2018-04-23T17:59:47.315Z,5.10
2018-04-23T18:02:15.660Z,5.30
2018-04-23T18:04:43.186Z,5.12
2018-04-23T18:07:10.692Z,6.85
2018-04-23T18:09:38.232Z,9.88
2018-04-23T18:12:05.751Z,6.57
2018-04-23T18:14:33.282Z,6.35
2018-04-23T18:17:01.566Z,7.65
2018-04-23T18:19:29.889Z,6.00
2018-04-23T18:21:57.426Z,6.03
2018-04-23T18:24:24.934Z,7.93
2018-04-23T18:26:52.460Z,6.55
2018-04-23T18:29:19.968Z,8.15
2018-04-23T18:31:47.513Z,8.55
2018-04-23T18:34:15.093Z,12.30
2018-04-23T18:36:42.615Z,10.68
2018-04-23T18:39:10.195Z,9.82
2018-04-23T18:41:37.734Z,9.60
2018-04-23T18:44:05.250Z,8.67
2018-04-23T18:46:32.825Z,10.25
2018-04-23T18:49:00.352Z,9.88
2018-04-23T18:51:28.648Z,10.82
2018-04-23T18:53:56.298Z,9.63
2018-04-23T18:56:24.607Z,10.77
2018-04-23T18:58:52.160Z,10.15
2018-04-23T19:01:19.723Z,11.07
2018-04-23T19:03:47.309Z,9.52
2018-04-23T19:06:14.977Z,11.65
2018-04-23T19:08:42.693Z,12.27
2018-04-23T19:11:10.985Z,11.18
2018-04-23T19:13:38.496Z,11.02
2018-04-23T19:16:06.914Z,11.15
2018-04-23T19:18:34.621Z,10.18
2018-04-23T19:21:02.342Z,10.50
2018-04-23T19:23:30.499Z,13.07
2018-04-23T19:25:58.847Z,10.75
2018-04-23T19:28:26.432Z,10.37
2018-04-23T19:30:53.971Z,11.57
2018-04-23T19:33:21.538Z,11.02
2018-04-23T19:35:49.098Z,11.60
2018-04-23T19:38:16.626Z,11.02
2018-04-23T19:40:44.162Z,16.52
2018-04-23T19:43:11.723Z,12.90
2018-04-23T19:45:39.374Z,12.05
2018-04-23T19:48:06.926Z,11.40
2018-04-23T19:50:35.218Z,12.23
2018-04-23T19:53:02.743Z,10.77
2018-04-23T19:55:30.282Z,11.50
2018-04-23T19:57:57.834Z,10.90
2018-04-23T20:00:25.429Z,11.53
2018-04-23T20:02:53.118Z,11.73
2018-04-23T20:05:20.746Z,10.70
2018-04-23T20:07:48.303Z,11.63
2018-04-23T20:10:15.875Z,12.88
2018-04-23T20:12:44.214Z,12.73
2018-04-23T20:15:11.767Z,13.07
2018-04-23T20:17:40.344Z,19.75
2018-04-23T20:20:07.912Z,15.18
2018-04-23T20:22:35.445Z,13.60
2018-04-23T20:25:02.977Z,12.65
2018-04-23T20:27:30.552Z,13.20
2018-04-23T20:29:58.916Z,13.50
2018-04-23T20:32:27.218Z,12.18
2018-04-23T20:34:54.779Z,13.13
2018-04-23T20:37:22.317Z,14.40
2018-04-23T20:39:49.902Z,12.35
2018-04-23T20:42:17.434Z,11.05
2018-04-23T20:44:44.969Z,10.63
2018-04-23T20:47:12.509Z,10.73
2018-04-23T20:49:40.104Z,9.45
2018-04-23T20:52:07.633Z,10.15
2018-04-23T20:54:35.187Z,8.65
2018-04-23T20:57:02.713Z,8.40
2018-04-23T20:59:32.352Z,8.93
2018-04-23T21:01:59.882Z,8.85
2018-04-23T21:04:28.157Z,8.30
2018-04-23T21:06:56.511Z,8.45
2018-04-23T21:09:24.032Z,7.80
2018-04-23T21:11:51.572Z,8.88
2018-04-23T21:14:19.909Z,8.05
2018-04-23T21:16:47.448Z,7.30
2018-04-23T21:19:15.023Z,8.23
2018-04-23T21:21:44.797Z,8.48
2018-04-23T21:24:12.549Z,7.55
2018-04-23T21:26:40.080Z,7.32
2018-04-23T21:29:07.678Z,6.60
2018-04-23T21:31:35.325Z,6.70
2018-04-23T21:34:02.861Z,7.10
2018-04-23T21:36:31.432Z,8.50
2018-04-23T21:38:59.035Z,7.10
2018-04-23T21:41:26.651Z,6.82
2018-04-23T21:43:54.182Z,6.93
2018-04-23T21:46:21.681Z,7.20
2018-04-23T21:48:49.252Z,7.82
2018-04-23T21:51:17.609Z,8.15
2018-04-23T21:53:45.385Z,11.38
2018-04-23T21:56:13.778Z,9.40
2018-04-23T21:58:42.070Z,7.32
2018-04-23T22:01:10.380Z,6.80
2018-04-23T22:03:37.930Z,7.95
2018-04-23T22:06:05.452Z,7.00
2018-04-23T22:08:33.722Z,7.90
2018-04-23T22:11:01.249Z,8.43
2018-04-23T22:13:29.861Z,8.00
2018-04-23T22:15:57.379Z,7.25
2018-04-23T22:18:24.954Z,7.70
2018-04-23T22:20:52.443Z,7.80
2018-04-23T22:23:20.744Z,7.30
2018-04-23T22:25:49.214Z,7.47
2018-04-23T22:28:17.511Z,8.03
2018-04-23T22:30:45.851Z,7.35
2018-04-23T22:33:13.357Z,7.50
2018-04-23T22:35:40.852Z,8.00
2018-04-23T22:38:08.372Z,7.53
2018-04-23T22:40:35.882Z,6.72
2018-04-23T22:43:03.428Z,7.15
2018-04-23T22:45:30.976Z,7.47
2018-04-23T22:47:58.513Z,7.12
2018-04-23T22:50:26.136Z,9.00
2018-04-23T22:52:53.599Z,7.60
2018-04-23T22:55:21.893Z,7.72
2018-04-23T22:57:49.438Z,7.10
2018-04-23T23:00:17.748Z,7.35
2018-04-23T23:02:45.290Z,7.97
2018-04-23T23:05:12.809Z,7.93
2018-04-23T23:07:40.338Z,8.95
2018-04-23T23:10:07.874Z,9.45
2018-04-23T23:12:35.426Z,7.37
2018-04-23T23:15:03.713Z,7.32
2018-04-23T23:17:31.271Z,7.30
2018-04-23T23:19:58.781Z,6.80
2018-04-23T23:22:26.292Z,6.80
2018-04-23T23:24:53.846Z,7.10
2018-04-23T23:27:21.363Z,6.80
2018-04-23T23:29:49.718Z,9.52
2018-04-23T23:32:17.239Z,7.00
2018-04-23T23:34:44.760Z,6.70
2018-04-23T23:37:12.277Z,7.50
2018-04-23T23:39:39.772Z,7.25
2018-04-23T23:42:07.361Z,6.90
2018-04-23T23:44:35.637Z,7.05
2018-04-23T23:47:03.139Z,6.15
2018-04-23T23:49:30.786Z,6.95
2018-04-23T23:51:58.299Z,7.35
2018-04-23T23:54:25.828Z,6.90
2018-04-23T23:56:53.332Z,7.60
2018-04-23T23:59:20.839Z,6.78
